Time;durP1;ratioP1;P1;durP2;ratioP2;P2;SDS_P1;SDS_P2;PMS_P1;PMS_P2;Temp;Humidity;BMP_temperature;BMP_pressure;BME280_temperature;BME280_humidity;BME280_pressure;Samples;Min_cycle;Max_cycle;Signal;HPM_P1;HPM_P2
2022/04/10 00:01:21;;;;;;;11.18;6.30;;;6.20;87.70;;;;;;5052253;28;20048;-52
2022/04/10 00:03:48;;;;;;;15.13;6.53;;;6.10;88.40;;;;;;5052488;28;20041;-49
2022/04/10 00:06:15;;;;;;;17.60;6.60;;;6.10;88.80;;;;;;5052424;28;20033;-51
2022/04/10 00:08:42;;;;;;;10.10;5.93;;;6.00;88.00;;;;;;5052506;28;20084;-50
2022/04/10 00:11:10;;;;;;;12.25;6.55;;;5.90;87.50;;;;;;5052486;28;20045;-51
2022/04/10 00:13:37;;;;;;;14.82;7.38;;;5.90;88.00;;;;;;5052389;28;20480;-51
2022/04/10 00:16:04;;;;;;;17.92;8.35;;;5.80;88.10;;;;;;5055334;28;20041;-51
2022/04/10 00:18:31;;;;;;;14.68;8.32;;;5.80;88.90;;;;;;5054602;28;20139;-48
2022/04/10 00:20:58;;;;;;;13.50;8.75;;;5.70;89.20;;;;;;5055716;28;20552;-49
2022/04/10 00:23:25;;;;;;;17.00;8.85;;;5.70;89.40;;;;;;5056141;28;20045;-50
2022/04/10 00:25:52;;;;;;;17.67;9.30;;;5.60;89.80;;;;;;5055721;28;20048;-48
2022/04/10 00:28:19;;;;;;;14.00;8.65;;;5.50;90.10;;;;;;5055935;28;20077;-50
2022/04/10 00:30:46;;;;;;;21.13;8.90;;;5.50;90.20;;;;;;5055528;28;20048;-50
2022/04/10 00:33:12;;;;;;;17.02;9.15;;;5.50;90.20;;;;;;5055588;28;20503;-54
2022/04/10 00:35:39;;;;;;;14.98;9.27;;;5.40;90.20;;;;;;5055616;28;20542;-51
2022/04/10 00:38:09;;;;;;;21.80;9.52;;;5.40;90.90;;;;;;5054219;28;20519;-49
2022/04/10 00:40:36;;;;;;;16.40;8.77;;;5.40;90.80;;;;;;5055499;28;20040;-51
2022/04/10 00:43:02;;;;;;;15.57;9.35;;;5.30;90.70;;;;;;5055570;28;20095;-51
2022/04/10 00:45:29;;;;;;;16.85;8.88;;;5.30;90.90;;;;;;5055377;28;20040;-52
2022/04/10 00:47:56;;;;;;;18.88;8.95;;;5.30;91.00;;;;;;5055293;28;20099;-47
2022/04/10 00:50:23;;;;;;;14.98;7.68;;;5.20;91.10;;;;;;5053987;28;20055;-52
2022/04/10 00:52:50;;;;;;;18.75;8.35;;;5.20;91.20;;;;;;5053820;28;20380;-51
2022/04/10 00:55:17;;;;;;;17.42;8.07;;;5.10;91.40;;;;;;5055120;28;20045;-49
2022/04/10 00:57:43;;;;;;;13.35;8.00;;;5.10;91.30;;;;;;5055095;28;20049;-50
2022/04/10 01:00:11;;;;;;;11.43;7.45;;;5.10;91.40;;;;;;5053191;28;20484;-48
2022/04/10 01:02:38;;;;;;;12.32;7.57;;;5.00;91.30;;;;;;5053606;28;20049;-50
2022/04/10 01:05:05;;;;;;;13.23;7.40;;;5.00;91.10;;;;;;5054933;28;20118;-52
2022/04/10 01:07:31;;;;;;;13.05;6.57;;;5.00;91.50;;;;;;5053431;28;20512;-52
2022/04/10 01:09:58;;;;;;;12.07;5.80;;;5.00;91.30;;;;;;5058296;28;20071;-52
2022/04/10 01:12:25;;;;;;;11.57;6.18;;;5.00;91.10;;;;;;5053513;28;20045;-49
2022/04/10 01:14:56;;;;;;;13.88;5.80;;;5.00;91.30;;;;;;5053616;28;20083;-51
2022/04/10 01:17:31;;;;;;;10.75;4.95;;;5.00;91.40;;;;;;5053616;28;20083;-53
2022/04/10 01:19:58;;;;;;;17.13;5.40;;;4.90;91.20;;;;;;5053376;28;20049;-50
2022/04/10 01:22:28;;;;;;;12.05;5.30;;;4.90;91.30;;;;;;5053276;28;20041;-52
2022/04/10 01:24:55;;;;;;;11.50;5.50;;;4.90;91.30;;;;;;5053257;28;20561;-50
2022/04/10 01:27:24;;;;;;;10.40;5.75;;;4.90;91.30;;;;;;5050951;28;20420;-52
2022/04/10 01:29:51;;;;;;;9.60;5.38;;;4.80;91.40;;;;;;5054617;28;20037;-51
2022/04/10 01:32:18;;;;;;;13.00;6.00;;;4.80;91.50;;;;;;5053336;28;20076;-52
2022/04/10 01:34:45;;;;;;;10.85;5.55;;;4.80;91.50;;;;;;5054637;28;20045;-53
2022/04/10 01:37:12;;;;;;;9.90;5.45;;;4.70;91.90;;;;;;5053225;28;20073;-52
2022/04/10 01:39:41;;;;;;;13.32;6.43;;;4.60;91.90;;;;;;5053216;28;20048;-52
2022/04/10 01:42:10;;;;;;;9.65;5.75;;;4.50;91.90;;;;;;5052961;28;20041;-50
2022/04/10 01:44:37;;;;;;;13.07;6.55;;;4.50;92.30;;;;;;5053147;28;20052;-52
2022/04/10 01:47:04;;;;;;;12.20;6.50;;;4.50;92.40;;;;;;5053073;28;20099;-47
2022/04/10 01:49:30;;;;;;;9.60;6.05;;;4.40;92.50;;;;;;5052906;28;20045;-52
2022/04/10 01:51:57;;;;;;;10.18;5.50;;;4.40;92.70;;;;;;5052717;28;20037;-52
2022/04/10 01:54:24;;;;;;;11.63;5.70;;;4.40;92.80;;;;;;5052817;28;20060;-56
2022/04/10 01:56:51;;;;;;;11.07;6.20;;;4.40;92.80;;;;;;5054069;28;20037;-49
2022/04/10 01:59:18;;;;;;;10.73;6.07;;;4.30;92.90;;;;;;5052035;28;20072;-56
2022/04/10 02:01:45;;;;;;;12.60;5.95;;;4.30;93.00;;;;;;5052605;28;20487;-52
2022/04/10 02:04:12;;;;;;;13.63;6.32;;;4.30;93.20;;;;;;5054077;28;20040;-53
2022/04/10 02:06:39;;;;;;;11.13;5.80;;;4.30;92.80;;;;;;5054034;28;20053;-56
2022/04/10 02:09:05;;;;;;;12.05;6.20;;;4.30;93.10;;;;;;5056945;28;20136;-55
2022/04/10 02:11:32;;;;;;;13.10;5.93;;;4.20;93.30;;;;;;5052539;28;20045;-51
2022/04/10 02:14:00;;;;;;;13.00;6.60;;;4.20;93.50;;;;;;5052592;28;20090;-52
2022/04/10 02:16:28;;;;;;;12.88;5.63;;;4.20;93.50;;;;;;5052755;28;20526;-50
2022/04/10 02:18:55;;;;;;;12.82;7.05;;;4.20;93.60;;;;;;5052724;28;20469;-52
2022/04/10 02:21:21;;;;;;;11.05;6.05;;;4.10;93.60;;;;;;5053790;28;21016;-48
2022/04/10 02:23:48;;;;;;;12.20;6.40;;;4.10;93.70;;;;;;5052568;28;20045;-49
2022/04/10 02:26:15;;;;;;;11.13;5.75;;;4.10;93.70;;;;;;5053680;28;20384;-55
2022/04/10 02:28:42;;;;;;;12.35;6.18;;;4.10;93.80;;;;;;5053534;28;20045;-53
2022/04/10 02:31:09;;;;;;;12.75;6.85;;;4.10;93.80;;;;;;5053401;28;20045;-48
2022/04/10 02:33:37;;;;;;;9.63;5.70;;;4.00;94.00;;;;;;5053463;28;20040;-50
2022/04/10 02:36:04;;;;;;;11.00;6.28;;;4.00;94.00;;;;;;5052176;28;20091;-49
2022/04/10 02:38:32;;;;;;;10.02;5.75;;;4.00;93.90;;;;;;5052598;28;20846;-50
2022/04/10 02:40:59;;;;;;;15.15;6.32;;;4.00;93.90;;;;;;5053321;28;20037;-54
2022/04/10 02:43:26;;;;;;;11.45;5.82;;;4.00;94.00;;;;;;5052021;28;20525;-52
2022/04/10 02:45:58;;;;;;;14.70;6.50;;;3.90;94.00;;;;;;5052019;28;20051;-51
2022/04/10 02:48:25;;;;;;;13.73;6.13;;;3.90;94.00;;;;;;5052275;28;20047;-51
2022/04/10 02:50:54;;;;;;;13.63;6.65;;;3.90;93.90;;;;;;5052180;28;20047;-49
2022/04/10 02:53:21;;;;;;;11.00;5.85;;;3.80;94.10;;;;;;5053041;28;20083;-52
2022/04/10 02:55:49;;;;;;;8.88;6.00;;;3.80;94.30;;;;;;5051720;28;20045;-47
2022/04/10 02:58:16;;;;;;;14.23;6.32;;;3.80;94.20;;;;;;5051860;28;20049;-55
2022/04/10 03:00:43;;;;;;;13.48;5.80;;;3.70;94.30;;;;;;5051901;28;20111;-55
2022/04/10 03:03:10;;;;;;;11.10;5.72;;;3.70;94.20;;;;;;5051888;28;20091;-52
2022/04/10 03:05:38;;;;;;;12.55;6.25;;;3.60;94.40;;;;;;5051692;28;20037;-55
2022/04/10 03:08:05;;;;;;;15.57;6.78;;;3.60;94.40;;;;;;5053805;28;20120;-47
2022/04/10 03:10:31;;;;;;;16.10;6.85;;;3.60;94.40;;;;;;5051850;28;20087;-50
2022/04/10 03:12:58;;;;;;;14.30;6.57;;;3.50;94.50;;;;;;5051779;28;20056;-51
2022/04/10 03:15:26;;;;;;;17.45;7.15;;;3.50;94.80;;;;;;5051554;28;20087;-49
2022/04/10 03:17:53;;;;;;;12.45;6.65;;;3.40;94.80;;;;;;5051600;28;20508;-51
2022/04/10 03:20:19;;;;;;;10.30;6.03;;;3.40;94.80;;;;;;5051555;28;20106;-49
2022/04/10 03:22:46;;;;;;;10.90;6.18;;;3.40;94.90;;;;;;5051681;28;20048;-46
2022/04/10 03:25:14;;;;;;;11.55;5.40;;;3.40;95.00;;;;;;5051453;28;20045;-52
2022/04/10 03:27:42;;;;;;;14.02;6.10;;;3.40;95.10;;;;;;5052881;28;20530;-52
2022/04/10 03:30:09;;;;;;;10.00;4.95;;;3.40;94.90;;;;;;5051394;28;20431;-50
2022/04/10 03:32:36;;;;;;;8.48;5.03;;;3.30;95.10;;;;;;5051511;28;20060;-48
2022/04/10 03:35:03;;;;;;;12.80;5.35;;;3.30;95.20;;;;;;5052952;28;20045;-48
2022/04/10 03:37:31;;;;;;;9.13;5.50;;;3.30;95.30;;;;;;5052256;28;20045;-49
2022/04/10 03:39:58;;;;;;;12.10;5.18;;;3.30;95.30;;;;;;5054870;28;20079;-47
2022/04/10 03:42:25;;;;;;;9.65;5.15;;;3.20;95.00;;;;;;5052639;28;20041;-51
2022/04/10 03:44:52;;;;;;;11.20;5.15;;;3.20;95.30;;;;;;5051282;28;20067;-50
2022/04/10 03:47:19;;;;;;;10.13;5.05;;;3.20;95.20;;;;;;5051373;28;20052;-51
2022/04/10 03:49:46;;;;;;;8.57;5.05;;;3.20;95.30;;;;;;5052111;28;20079;-49
2022/04/10 03:52:13;;;;;;;9.35;5.30;;;3.20;95.40;;;;;;5056394;28;20049;-52
2022/04/10 03:54:40;;;;;;;8.98;4.15;;;3.10;95.30;;;;;;5055078;28;20044;-48
2022/04/10 03:57:07;;;;;;;10.35;4.80;;;3.10;95.30;;;;;;5038455;28;20415;-49
2022/04/10 03:59:33;;;;;;;9.45;4.80;;;3.20;95.40;;;;;;5054869;28;20049;-54
2022/04/10 04:02:01;;;;;;;9.75;4.93;;;3.10;95.30;;;;;;5054959;28;20391;-48
2022/04/10 04:04:28;;;;;;;10.32;5.07;;;3.10;95.40;;;;;;5054804;28;20496;-50
2022/04/10 04:06:55;;;;;;;7.00;4.78;;;3.00;95.40;;;;;;5056216;28;20091;-51
2022/04/10 04:09:23;;;;;;;9.20;4.75;;;3.00;95.60;;;;;;5054678;28;20137;-52
2022/04/10 04:11:50;;;;;;;13.30;5.07;;;3.00;95.60;;;;;;5037752;28;20076;-51
2022/04/10 04:14:19;;;;;;;8.95;5.00;;;3.00;95.60;;;;;;5054691;28;20190;-53
2022/04/10 04:16:46;;;;;;;9.07;4.07;;;3.00;95.70;;;;;;5054829;28;20075;-55
2022/04/10 04:19:13;;;;;;;8.98;4.30;;;2.90;95.60;;;;;;5056189;28;20108;-54
2022/04/10 04:21:41;;;;;;;9.60;3.92;;;2.90;95.70;;;;;;5054781;28;20049;-48
2022/04/10 04:24:09;;;;;;;7.35;4.15;;;2.90;95.80;;;;;;5054697;28;20041;-55
2022/04/10 04:26:35;;;;;;;8.32;3.95;;;2.90;95.70;;;;;;5054509;28;20044;-50
2022/04/10 04:29:06;;;;;;;7.05;4.35;;;2.90;95.70;;;;;;5054618;28;20040;-50
2022/04/10 04:31:33;;;;;;;8.68;4.50;;;2.80;96.00;;;;;;5054460;28;20045;-49
2022/04/10 04:34:00;;;;;;;10.90;4.90;;;2.80;95.80;;;;;;5054273;28;20045;-52
2022/04/10 04:36:27;;;;;;;10.85;5.10;;;2.80;96.00;;;;;;5054449;28;20427;-49
2022/04/10 04:38:56;;;;;;;8.15;4.70;;;2.70;95.90;;;;;;5054121;28;20479;-55
2022/04/10 04:41:24;;;;;;;8.55;4.18;;;2.70;96.00;;;;;;5054239;28;20045;-50
2022/04/10 04:43:52;;;;;;;10.20;4.78;;;2.70;96.20;;;;;;5054098;28;20041;-54
2022/04/10 04:46:18;;;;;;;7.95;4.55;;;2.70;96.20;;;;;;5054393;28;20077;-51
2022/04/10 04:48:45;;;;;;;10.52;4.65;;;2.60;96.20;;;;;;5054279;28;20451;-47
2022/04/10 04:51:12;;;;;;;8.48;4.70;;;2.60;96.20;;;;;;5054191;28;20076;-51
2022/04/10 04:53:39;;;;;;;7.80;4.50;;;2.60;96.30;;;;;;5054011;28;20099;-54
2022/04/10 04:56:06;;;;;;;15.27;4.32;;;2.60;96.50;;;;;;5053992;28;20049;-49
2022/04/10 04:58:36;;;;;;;9.25;4.05;;;2.60;96.40;;;;;;5054078;28;20067;-50
2022/04/10 05:01:03;;;;;;;10.57;4.38;;;2.60;96.30;;;;;;5056026;28;20118;-49
2022/04/10 05:03:30;;;;;;;10.15;5.20;;;2.50;96.30;;;;;;5053723;28;20064;-50
2022/04/10 05:05:57;;;;;;;12.48;5.05;;;2.60;96.40;;;;;;5053630;28;20037;-53
2022/04/10 05:08:28;;;;;;;9.75;4.57;;;2.50;96.10;;;;;;5053567;28;20057;-49
2022/04/10 05:10:55;;;;;;;8.00;4.93;;;2.50;96.30;;;;;;5053487;28;20379;-51
2022/04/10 05:13:23;;;;;;;10.63;5.05;;;2.40;96.50;;;;;;5053841;28;20124;-48
2022/04/10 05:15:50;;;;;;;10.40;4.72;;;2.50;96.30;;;;;;5053539;28;20045;-54
2022/04/10 05:18:20;;;;;;;12.30;4.95;;;2.50;96.30;;;;;;5037375;28;20044;-50
2022/04/10 05:20:49;;;;;;;10.30;4.80;;;2.50;96.30;;;;;;5053330;28;20045;-54
2022/04/10 05:23:18;;;;;;;11.95;5.35;;;2.40;96.20;;;;;;5053337;28;20110;-53
2022/04/10 05:25:52;;;;;;;9.75;5.32;;;2.50;96.30;;;;;;5053414;28;20132;-51
2022/04/10 05:28:19;;;;;;;12.50;4.40;;;2.40;96.60;;;;;;5053376;28;20048;-52
2022/04/10 05:30:45;;;;;;;10.35;5.40;;;2.40;96.50;;;;;;5058738;28;20041;-51
2022/04/10 05:33:18;;;;;;;9.65;5.22;;;2.40;96.60;;;;;;5053224;28;20279;-56
2022/04/10 05:35:47;;;;;;;12.23;4.65;;;2.40;96.50;;;;;;5053082;28;20052;-50
2022/04/10 05:38:14;;;;;;;9.32;5.00;;;2.30;96.30;;;;;;5053132;28;20123;-50
2022/04/10 05:40:42;;;;;;;11.50;5.57;;;2.40;96.80;;;;;;5053143;28;20132;-51
2022/04/10 05:43:09;;;;;;;9.45;4.85;;;2.40;96.70;;;;;;5052888;28;20380;-52
2022/04/10 05:45:36;;;;;;;10.07;5.07;;;2.40;96.50;;;;;;5053128;28;20041;-49
2022/04/10 05:48:04;;;;;;;8.88;5.30;;;2.30;96.80;;;;;;5052933;28;20442;-50
2022/04/10 05:50:32;;;;;;;10.02;4.93;;;2.30;96.80;;;;;;5052835;28;20083;-53
2022/04/10 05:52:59;;;;;;;9.18;4.80;;;2.40;96.80;;;;;;5052747;28;20407;-48
2022/04/10 05:55:29;;;;;;;9.00;5.13;;;2.40;96.60;;;;;;5052712;28;20049;-50
2022/04/10 05:58:04;;;;;;;9.05;4.90;;;2.40;96.60;;;;;;5052809;28;20052;-52
2022/04/10 06:00:32;;;;;;;10.75;5.03;;;2.50;96.60;;;;;;5063655;28;20488;-52
2022/04/10 06:03:08;;;;;;;9.90;5.32;;;2.50;96.40;;;;;;5052742;28;20357;-51
2022/04/10 06:05:39;;;;;;;9.73;5.13;;;2.60;96.60;;;;;;5036741;28;20049;-55
2022/04/10 06:08:17;;;;;;;8.95;4.90;;;2.60;96.60;;;;;;5052474;28;20059;-50
2022/04/10 06:10:44;;;;;;;11.90;5.20;;;2.50;96.80;;;;;;5052402;28;20139;-53
2022/04/10 06:13:12;;;;;;;11.30;5.00;;;2.60;96.90;;;;;;5051849;28;20044;-48
2022/04/10 06:16:05;;;;;;;9.25;5.20;;;2.60;96.60;;;;;;5053810;28;20044;-53
2022/04/10 06:18:32;;;;;;;10.80;5.40;;;2.70;96.80;;;;;;5046385;28;20052;-52
2022/04/10 06:21:03;;;;;;;9.80;6.18;;;2.80;96.70;;;;;;5033422;28;20037;-54
2022/04/10 06:23:31;;;;;;;9.30;5.65;;;2.80;96.70;;;;;;5052238;28;20496;-50
2022/04/10 06:26:06;;;;;;;10.32;5.07;;;2.90;96.50;;;;;;5055102;28;20376;-49
2022/04/10 06:28:33;;;;;;;10.55;5.40;;;3.00;96.70;;;;;;5052258;28;20564;-48
2022/04/10 06:31:03;;;;;;;9.43;5.32;;;3.00;96.50;;;;;;5054462;28;20041;-52
2022/04/10 06:33:33;;;;;;;9.93;6.18;;;3.10;96.50;;;;;;5052126;28;20045;-51
2022/04/10 06:36:01;;;;;;;8.77;4.70;;;3.10;96.40;;;;;;5051950;28;20053;-50
2022/04/10 06:38:28;;;;;;;14.45;5.38;;;3.20;96.50;;;;;;5052099;28;20052;-54
2022/04/10 06:41:07;;;;;;;12.52;5.30;;;3.20;96.20;;;;;;5052010;28;20041;-52
2022/04/10 06:43:34;;;;;;;9.57;5.47;;;3.30;96.30;;;;;;5051883;28;20072;-48
2022/04/10 06:46:27;;;;;;;11.13;5.75;;;3.40;96.50;;;;;;5052311;28;20502;-51
2022/04/10 06:49:06;;;;;;;10.60;5.20;;;3.40;96.30;;;;;;5052074;28;20090;-50
2022/04/10 06:51:33;;;;;;;8.55;5.32;;;3.50;96.20;;;;;;5052005;28;20041;-47
2022/04/10 06:54:04;;;;;;;11.48;5.53;;;3.60;96.60;;;;;;5051995;28;20044;-48
2022/04/10 06:56:32;;;;;;;12.98;5.32;;;3.70;96.40;;;;;;5051676;28;20041;-50
2022/04/10 06:58:59;;;;;;;10.20;5.47;;;3.70;96.60;;;;;;5052396;28;20128;-50
2022/04/10 07:01:26;;;;;;;10.25;6.07;;;3.80;96.20;;;;;;5055652;28;20033;-51
2022/04/10 07:03:53;;;;;;;8.23;5.43;;;3.90;96.30;;;;;;5051718;28;20373;-49
2022/04/10 07:06:26;;;;;;;10.60;5.85;;;3.90;96.10;;;;;;5052968;28;20120;-56
2022/04/10 07:08:53;;;;;;;10.13;5.65;;;4.10;95.90;;;;;;5051532;28;20049;-51
2022/04/10 07:11:28;;;;;;;10.40;6.07;;;4.10;96.00;;;;;;5051598;28;20052;-50
2022/04/10 07:13:54;;;;;;;14.63;6.25;;;4.20;95.80;;;;;;5051609;28;20045;-55
2022/04/10 07:16:21;;;;;;;9.98;6.03;;;4.30;95.70;;;;;;5051866;28;20131;-48
2022/04/10 07:18:49;;;;;;;13.93;6.18;;;4.30;95.70;;;;;;5051480;28;20083;-49
2022/04/10 07:23:41;;;;;;;9.63;6.75;;;4.40;95.50;;;;;;5051660;28;20053;-50
2022/04/10 07:24:06;;;;;;;12.60;5.80;;;4.50;95.40;;;;;;5052786;28;20570;-52
2022/04/10 07:26:39;;;;;;;11.45;5.47;;;4.60;95.30;;;;;;5055630;28;20067;-53
2022/04/10 07:29:12;;;;;;;14.15;5.90;;;4.70;95.20;;;;;;5056236;28;20045;-51
2022/04/10 07:31:41;;;;;;;12.43;5.70;;;4.80;95.30;;;;;;5051174;28;20403;-49
2022/04/10 07:34:08;;;;;;;10.93;5.78;;;4.90;95.10;;;;;;5038048;28;20048;-51
2022/04/10 07:37:10;;;;;;;11.48;6.07;;;5.00;94.80;;;;;;5052246;28;20045;-53
2022/04/10 07:39:50;;;;;;;10.52;6.07;;;5.10;94.70;;;;;;5055350;28;20095;-48
2022/04/10 07:42:27;;;;;;;11.80;5.95;;;5.20;94.50;;;;;;5055073;28;20522;-52
2022/04/10 07:48:25;;;;;;;11.98;6.07;;;5.40;94.00;;;;;;5056086;28;20135;-52
2022/04/10 07:50:52;;;;;;;12.55;7.93;;;5.50;93.40;;;;;;5054796;28;20140;-50
2022/04/10 07:53:23;;;;;;;10.73;6.22;;;5.60;93.30;;;;;;5055121;28;20135;-53
2022/04/10 07:55:55;;;;;;;11.68;6.03;;;5.70;94.10;;;;;;5055135;28;20048;-52
2022/04/10 07:58:23;;;;;;;9.48;5.93;;;5.80;94.80;;;;;;5055103;28;20144;-48
2022/04/10 08:00:50;;;;;;;11.63;6.05;;;5.90;94.60;;;;;;5057540;28;20437;-54
2022/04/10 08:03:20;;;;;;;10.65;5.63;;;6.00;94.50;;;;;;5054872;28;20496;-53
2022/04/10 08:05:49;;;;;;;10.75;5.93;;;6.10;94.50;;;;;;5053940;28;20561;-50
2022/04/10 08:08:18;;;;;;;10.13;5.22;;;6.10;94.10;;;;;;5053100;28;20454;-53
2022/04/10 08:10:45;;;;;;;8.55;5.30;;;6.20;93.80;;;;;;5056101;28;20471;-48
2022/04/10 08:13:12;;;;;;;11.48;5.53;;;6.30;93.90;;;;;;5054696;28;20404;-52
2022/04/10 08:15:38;;;;;;;12.27;5.30;;;6.30;93.80;;;;;;5055980;28;20048;-49
2022/04/10 08:18:10;;;;;;;8.90;4.47;;;6.40;93.70;;;;;;5053763;28;20106;-48
2022/04/10 08:20:36;;;;;;;9.52;3.83;;;6.60;92.80;;;;;;5054778;28;20048;-52
2022/04/10 08:23:03;;;;;;;9.95;3.97;;;6.70;92.70;;;;;;5055693;28;20044;-49
2022/04/10 08:25:30;;;;;;;7.95;3.35;;;6.80;91.80;;;;;;5055673;28;20114;-49
2022/04/10 08:27:57;;;;;;;9.65;3.47;;;6.90;91.30;;;;;;5055658;28;20041;-50
2022/04/10 08:30:23;;;;;;;7.03;2.60;;;7.10;91.00;;;;;;5055532;28;20045;-51
2022/04/10 08:32:50;;;;;;;10.00;2.85;;;7.20;90.10;;;;;;5055528;28;20128;-50
2022/04/10 08:35:18;;;;;;;7.85;3.00;;;7.30;89.30;;;;;;5052352;28;20072;-49
2022/04/10 08:37:45;;;;;;;7.40;2.83;;;7.50;88.20;;;;;;5055562;28;20079;-48
2022/04/10 08:40:12;;;;;;;8.27;3.33;;;7.60;87.50;;;;;;5052992;28;20048;-48
2022/04/10 08:42:38;;;;;;;6.45;2.95;;;7.60;87.80;;;;;;5052872;28;20045;-51
2022/04/10 08:45:05;;;;;;;6.57;2.15;;;7.70;87.20;;;;;;5051471;28;20093;-47
2022/04/10 08:47:32;;;;;;;7.63;2.30;;;7.80;85.90;;;;;;5052530;28;20040;-54
2022/04/10 08:49:59;;;;;;;7.57;2.28;;;7.90;84.00;;;;;;5055406;28;20123;-54
2022/04/10 08:52:25;;;;;;;7.00;2.10;;;8.00;83.60;;;;;;5055277;28;20538;-52
2022/04/10 08:54:52;;;;;;;5.75;2.05;;;8.10;82.80;;;;;;5055392;28;20036;-54
2022/04/10 08:57:19;;;;;;;8.40;2.17;;;8.10;82.40;;;;;;5055202;28;20036;-55
2022/04/10 08:59:45;;;;;;;6.75;1.92;;;8.20;80.60;;;;;;5056586;28;20479;-54
2022/04/10 09:02:15;;;;;;;3.25;1.38;;;8.30;77.80;;;;;;5054445;28;20098;-53
2022/04/10 09:04:42;;;;;;;8.48;1.58;;;8.40;75.50;;;;;;5055049;28;20091;-56
2022/04/10 09:07:09;;;;;;;4.30;1.20;;;8.40;75.50;;;;;;5055097;28;20091;-51
2022/04/10 09:09:35;;;;;;;4.15;1.30;;;8.50;74.30;;;;;;5054919;28;20056;-54
2022/04/10 09:12:02;;;;;;;8.98;1.80;;;8.60;72.90;;;;;;5054772;28;20036;-55
2022/04/10 09:14:29;;;;;;;8.13;1.70;;;8.60;72.80;;;;;;5055039;28;20099;-56
2022/04/10 09:16:55;;;;;;;4.05;1.20;;;8.70;70.80;;;;;;5054875;28;20048;-52
2022/04/10 09:19:22;;;;;;;5.10;1.45;;;8.80;68.10;;;;;;5054924;28;20132;-53
2022/04/10 09:21:49;;;;;;;5.10;1.60;;;8.80;70.30;;;;;;5054633;28;20484;-53
2022/04/10 09:24:16;;;;;;;4.35;1.50;;;8.90;69.00;;;;;;5054766;28;20484;-55
2022/04/10 09:26:43;;;;;;;5.38;1.50;;;8.90;69.20;;;;;;5054551;28;20037;-51
2022/04/10 09:29:10;;;;;;;4.10;1.27;;;9.00;67.50;;;;;;5054664;28;20071;-54
2022/04/10 09:31:37;;;;;;;5.18;1.42;;;9.00;65.80;;;;;;5054259;28;20484;-52
2022/04/10 09:34:04;;;;;;;5.05;1.35;;;9.10;65.10;;;;;;5054590;28;20045;-51
2022/04/10 09:36:31;;;;;;;4.95;1.42;;;9.20;61.70;;;;;;5054431;28;20500;-50
2022/04/10 09:38:57;;;;;;;4.20;1.48;;;9.20;61.70;;;;;;5054383;28;20080;-51
2022/04/10 09:41:24;;;;;;;5.57;1.33;;;9.30;65.60;;;;;;5054309;28;20041;-51
2022/04/10 09:43:51;;;;;;;4.47;1.60;;;9.30;66.20;;;;;;5054275;28;20037;-55
2022/04/10 09:46:18;;;;;;;4.65;1.52;;;9.40;69.00;;;;;;5054317;28;20037;-49
2022/04/10 09:48:45;;;;;;;5.15;1.27;;;9.40;68.10;;;;;;5053141;28;20542;-50
2022/04/10 09:51:12;;;;;;;6.75;1.50;;;9.50;67.80;;;;;;5054217;28;20392;-47
2022/04/10 09:53:38;;;;;;;8.65;1.50;;;9.50;68.30;;;;;;5054055;28;20044;-50
2022/04/10 09:56:05;;;;;;;5.47;1.40;;;9.60;66.70;;;;;;5055125;28;20045;-48
2022/04/10 09:58:32;;;;;;;3.83;1.20;;;9.60;66.80;;;;;;5054107;28;20123;-51
2022/04/10 10:00:59;;;;;;;4.72;1.42;;;9.70;67.10;;;;;;5054159;28;20044;-52
2022/04/10 10:03:36;;;;;;;3.88;1.05;;;9.80;67.60;;;;;;5053897;28;20051;-52
2022/04/10 10:06:03;;;;;;;2.28;1.00;;;9.80;61.90;;;;;;5054071;28;20042;-54
2022/04/10 10:08:30;;;;;;;5.47;1.58;;;9.90;61.00;;;;;;5053629;28;20076;-49
2022/04/10 10:10:57;;;;;;;5.28;1.10;;;9.90;61.50;;;;;;5053891;28;20506;-47
2022/04/10 10:13:26;;;;;;;6.07;1.50;;;10.00;60.00;;;;;;5053289;28;20157;-47
2022/04/10 10:15:55;;;;;;;5.30;1.80;;;10.00;59.30;;;;;;5054513;28;20036;-48
2022/04/10 10:18:22;;;;;;;5.75;1.77;;;10.10;61.30;;;;;;5054961;28;20115;-46
2022/04/10 10:20:49;;;;;;;5.30;1.73;;;10.10;62.90;;;;;;5053517;28;20049;-54
2022/04/10 10:23:16;;;;;;;5.18;1.60;;;10.20;65.10;;;;;;5053405;28;20120;-48
2022/04/10 10:25:43;;;;;;;4.72;1.50;;;10.30;64.90;;;;;;5053581;28;20041;-52
2022/04/10 10:28:09;;;;;;;5.00;1.65;;;10.40;64.60;;;;;;5053494;28;20044;-48
2022/04/10 10:30:36;;;;;;;5.15;2.03;;;10.50;64.30;;;;;;5054531;28;20107;-51
2022/04/10 10:33:03;;;;;;;6.05;1.45;;;10.50;64.20;;;;;;5053184;28;20080;-51
2022/04/10 10:35:30;;;;;;;4.43;1.50;;;10.50;62.80;;;;;;5053442;28;20399;-50
2022/04/10 10:37:56;;;;;;;5.53;1.50;;;10.50;63.30;;;;;;5053369;28;20124;-52
2022/04/10 10:40:23;;;;;;;4.32;1.50;;;10.50;62.30;;;;;;5053220;28;20041;-51
2022/04/10 10:42:50;;;;;;;3.13;1.48;;;10.60;62.50;;;;;;5053206;28;20045;-47
2022/04/10 10:45:16;;;;;;;4.85;1.70;;;10.60;62.00;;;;;;5053279;28;20037;-55
2022/04/10 10:47:43;;;;;;;4.22;1.52;;;10.60;62.40;;;;;;5051946;28;20041;-51
2022/04/10 10:50:10;;;;;;;5.25;1.58;;;10.70;63.60;;;;;;5053165;28;20045;-49
2022/04/10 10:52:36;;;;;;;7.38;1.90;;;10.70;63.80;;;;;;5051719;28;20502;-50
2022/04/10 10:55:03;;;;;;;7.25;1.98;;;10.80;63.00;;;;;;5053060;28;20048;-52
2022/04/10 10:57:35;;;;;;;4.32;1.50;;;11.00;63.60;;;;;;5053114;28;20049;-47
2022/04/10 11:00:01;;;;;;;6.18;1.63;;;11.10;63.10;;;;;;5053771;28;20127;-49
2022/04/10 11:02:28;;;;;;;4.32;1.80;;;11.20;61.00;;;;;;5054589;28;20041;-49
2022/04/10 11:05:15;;;;;;;7.53;1.50;;;11.30;58.00;;;;;;5052988;28;20041;-50
2022/04/10 11:07:42;;;;;;;4.65;1.48;;;11.30;56.70;;;;;;5052457;28;20045;-47
2022/04/10 11:10:10;;;;;;;4.25;1.30;;;11.30;57.70;;;;;;5052789;28;20174;-48
2022/04/10 11:12:38;;;;;;;5.30;1.20;;;11.30;56.70;;;;;;5052784;28;20045;-52
2022/04/10 11:15:05;;;;;;;3.95;1.00;;;11.30;58.00;;;;;;5052766;28;20087;-51
2022/04/10 11:17:32;;;;;;;5.32;1.48;;;11.40;57.20;;;;;;5052988;28;20073;-49
2022/04/10 11:19:58;;;;;;;4.95;1.85;;;11.50;55.60;;;;;;5053020;28;20399;-51
2022/04/10 11:22:25;;;;;;;5.00;1.45;;;11.70;57.30;;;;;;5052780;28;20037;-53
2022/04/10 11:24:52;;;;;;;5.43;1.50;;;11.70;53.40;;;;;;5052710;28;20045;-50
2022/04/10 11:27:19;;;;;;;5.43;1.40;;;11.80;54.70;;;;;;5052779;28;20120;-47
2022/04/10 11:29:47;;;;;;;4.30;1.38;;;11.90;54.80;;;;;;5052702;28;20083;-52
2022/04/10 11:32:14;;;;;;;5.97;1.55;;;12.00;53.80;;;;;;5051179;28;20042;-49
2022/04/10 11:34:41;;;;;;;4.35;1.23;;;11.90;54.30;;;;;;5052752;28;20099;-51
2022/04/10 11:37:09;;;;;;;4.03;1.60;;;11.90;55.60;;;;;;5052712;28;20076;-47
2022/04/10 11:39:36;;;;;;;5.18;1.38;;;11.90;58.10;;;;;;5055590;28;20067;-48
2022/04/10 11:42:03;;;;;;;4.35;1.33;;;12.00;55.80;;;;;;5051278;28;20072;-49
2022/04/10 11:44:29;;;;;;;5.38;1.30;;;12.00;53.50;;;;;;5050684;28;20045;-48
2022/04/10 11:46:56;;;;;;;6.15;1.50;;;12.10;53.90;;;;;;5050864;28;20106;-50
2022/04/10 11:49:23;;;;;;;4.93;1.65;;;12.20;56.00;;;;;;5050790;28;20480;-47
2022/04/10 11:51:50;;;;;;;6.38;1.70;;;12.20;57.10;;;;;;5052352;28;20087;-52
2022/04/10 11:54:17;;;;;;;6.05;1.80;;;12.30;58.70;;;;;;5052706;28;20056;-52
2022/04/10 11:56:43;;;;;;;5.35;1.63;;;12.40;57.70;;;;;;5052300;28;20056;-53
2022/04/10 11:59:13;;;;;;;8.38;2.25;;;12.30;58.30;;;;;;5052403;28;20049;-49
2022/04/10 12:01:41;;;;;;;7.72;2.22;;;12.30;59.80;;;;;;5053497;28;20076;-50
2022/04/10 12:04:08;;;;;;;5.22;1.98;;;12.40;60.70;;;;;;5052492;28;20052;-47
2022/04/10 12:06:35;;;;;;;5.13;1.95;;;12.40;62.00;;;;;;5052283;28;20125;-52
2022/04/10 12:09:01;;;;;;;5.15;2.03;;;12.40;62.20;;;;;;5052056;28;20064;-48
2022/04/10 12:11:28;;;;;;;5.55;1.90;;;12.50;63.40;;;;;;5054176;28;20893;-49
2022/04/10 12:13:55;;;;;;;3.75;1.90;;;12.50;63.10;;;;;;5055747;28;20053;-48
2022/04/10 12:16:21;;;;;;;8.07;1.85;;;12.40;62.70;;;;;;5055988;28;20079;-49
2022/04/10 12:18:49;;;;;;;5.57;1.92;;;12.40;64.00;;;;;;5056056;28;20041;-50
2022/04/10 12:21:15;;;;;;;5.97;1.67;;;12.30;63.00;;;;;;5061469;28;20458;-47
2022/04/10 12:23:42;;;;;;;6.18;1.70;;;12.40;63.50;;;;;;5055972;28;20423;-49
2022/04/10 12:26:09;;;;;;;6.82;1.90;;;12.50;64.10;;;;;;5055858;28;20048;-50
2022/04/10 12:28:36;;;;;;;5.65;1.90;;;12.50;63.60;;;;;;5055867;28;20041;-47
2022/04/10 12:31:02;;;;;;;8.10;2.13;;;12.60;63.80;;;;;;5055973;28;20069;-50
2022/04/10 12:33:29;;;;;;;8.70;2.35;;;12.60;63.90;;;;;;5055735;28;20376;-48
2022/04/10 12:35:56;;;;;;;10.55;1.80;;;12.70;64.40;;;;;;5058685;28;20103;-47
2022/04/10 12:38:23;;;;;;;9.32;2.30;;;12.80;64.20;;;;;;5055501;28;20053;-48
2022/04/10 12:40:50;;;;;;;6.25;1.70;;;12.70;62.80;;;;;;5056067;28;20368;-49
2022/04/10 12:43:17;;;;;;;6.38;1.80;;;12.60;63.10;;;;;;5055497;28;20132;-51
2022/04/10 12:45:44;;;;;;;7.15;2.28;;;12.60;64.10;;;;;;5057465;28;20368;-48
2022/04/10 12:48:11;;;;;;;6.13;2.10;;;12.70;63.80;;;;;;5055426;28;20052;-48
2022/04/10 12:50:38;;;;;;;8.18;2.40;;;12.80;62.20;;;;;;5055118;28;20036;-48
2022/04/10 12:53:04;;;;;;;6.28;2.13;;;13.00;64.20;;;;;;5052422;28;20488;-49
2022/04/10 12:55:31;;;;;;;5.93;1.88;;;13.10;63.00;;;;;;5054244;28;20120;-53
2022/04/10 12:57:58;;;;;;;4.90;1.63;;;13.20;61.30;;;;;;5054745;28;20103;-52